createdAt,value
2018-11-26T00:00:47.513Z,81.17
2018-11-26T00:03:12.973Z,83.17
2018-11-26T00:05:38.822Z,75.60
2018-11-26T00:11:07.379Z,80.63
2018-11-26T00:13:32.466Z,76.70
2018-11-26T00:15:57.566Z,72.13
2018-11-26T00:18:22.639Z,79.70
2018-11-26T00:20:47.746Z,71.97
2018-11-26T00:23:13.192Z,72.63
2018-11-26T00:25:38.292Z,68.13
2018-11-26T00:28:03.430Z,76.50
2018-11-26T00:30:28.713Z,69.67
2018-11-26T00:32:53.818Z,68.50
2018-11-26T00:35:18.924Z,71.03
2018-11-26T00:37:43.986Z,71.60
2018-11-26T00:40:10.773Z,67.27
2018-11-26T00:45:13.649Z,71.23
2018-11-26T00:50:16.323Z,66.70
2018-11-26T00:52:42.095Z,73.30
2018-11-26T00:55:08.497Z,66.90
2018-11-26T00:57:33.570Z,70.30
2018-11-26T00:59:58.769Z,73.90
2018-11-26T01:02:23.876Z,76.03
2018-11-26T01:04:48.961Z,68.67
2018-11-26T01:07:14.072Z,74.93
2018-11-26T01:09:39.169Z,71.40
2018-11-26T01:12:04.420Z,70.43
2018-11-26T01:14:29.586Z,66.60
2018-11-26T01:16:54.938Z,66.60
2018-11-26T01:19:19.956Z,68.20
2018-11-26T01:21:45.126Z,66.23
2018-11-26T01:24:10.188Z,64.63
2018-11-26T01:26:35.244Z,64.80
2018-11-26T01:29:00.326Z,68.40
2018-11-26T01:31:25.418Z,62.53
2018-11-26T01:33:50.580Z,62.60
2018-11-26T01:36:15.636Z,64.97
2018-11-26T01:38:40.742Z,64.47
2018-11-26T01:41:05.876Z,61.30
2018-11-26T01:43:30.941Z,61.67
2018-11-26T01:45:56.057Z,61.10
2018-11-26T01:48:21.131Z,61.27
2018-11-26T01:50:46.208Z,58.23
2018-11-26T01:53:11.331Z,54.77
2018-11-26T01:55:36.542Z,52.60
2018-11-26T01:58:01.714Z,54.17
2018-11-26T02:00:27.850Z,57.80
2018-11-26T02:02:52.922Z,56.23
2018-11-26T02:05:18.080Z,58.33
2018-11-26T02:07:43.173Z,58.80
2018-11-26T02:10:10.473Z,51.90
2018-11-26T02:12:35.517Z,55.13
2018-11-26T02:15:00.610Z,52.23
2018-11-26T02:17:25.693Z,51.37
2018-11-26T02:19:50.770Z,54.90
2018-11-26T02:22:15.825Z,51.37
2018-11-26T02:24:40.927Z,54.97
2018-11-26T02:27:06.409Z,53.03
2018-11-26T02:29:31.458Z,53.03
2018-11-26T02:31:56.517Z,51.50
2018-11-26T02:34:21.565Z,54.70
2018-11-26T02:36:46.895Z,52.80
2018-11-26T02:39:11.929Z,56.97
2018-11-26T02:41:36.958Z,49.83
2018-11-26T02:44:02.028Z,48.83
2018-11-26T02:46:27.100Z,53.10
2018-11-26T02:48:52.206Z,56.43
2018-11-26T02:51:17.200Z,50.47
2018-11-26T02:53:42.521Z,52.90
2018-11-26T02:56:07.553Z,55.20
2018-11-26T02:58:32.597Z,50.47
2018-11-26T03:00:57.707Z,50.80
2018-11-26T03:03:22.760Z,47.10
2018-11-26T03:05:48.225Z,49.83
2018-11-26T03:08:13.335Z,50.97
2018-11-26T03:10:38.380Z,48.93
2018-11-26T03:13:15.313Z,43.63
2018-11-26T03:15:40.387Z,46.20
2018-11-26T03:18:05.477Z,49.53
2018-11-26T03:20:30.521Z,47.27
2018-11-26T03:22:55.620Z,46.53
2018-11-26T03:25:39.691Z,43.50
2018-11-26T03:28:04.796Z,41.07
2018-11-26T03:30:30.188Z,43.90
2018-11-26T03:32:55.302Z,43.47
2018-11-26T03:35:20.395Z,43.40
2018-11-26T03:37:45.536Z,41.93
2018-11-26T03:40:11.925Z,42.17
2018-11-26T03:42:36.961Z,42.43
2018-11-26T03:45:02.046Z,42.70
2018-11-26T03:47:27.099Z,47.97
2018-11-26T03:49:52.177Z,44.60
2018-11-26T03:52:17.215Z,46.77
2018-11-26T03:54:42.271Z,46.50
2018-11-26T03:57:07.468Z,44.53
2018-11-26T03:59:32.553Z,46.10
2018-11-26T04:01:57.748Z,45.50
2018-11-26T04:04:22.801Z,44.60
2018-11-26T04:06:47.868Z,44.60
2018-11-26T04:09:12.967Z,47.77
2018-11-26T04:11:38.407Z,50.07
2018-11-26T04:14:03.593Z,46.73
2018-11-26T04:16:28.681Z,49.53
2018-11-26T04:18:53.735Z,50.23
2018-11-26T04:21:18.855Z,48.00
2018-11-26T04:23:43.932Z,49.30
2018-11-26T04:26:09.031Z,51.10
2018-11-26T04:28:34.074Z,45.67
2018-11-26T04:30:59.113Z,45.77
2018-11-26T04:33:24.281Z,52.13
2018-11-26T04:35:49.392Z,46.47
2018-11-26T04:38:14.449Z,49.00
2018-11-26T04:40:39.505Z,45.23
2018-11-26T04:43:04.583Z,43.83
2018-11-26T04:45:29.691Z,47.77
2018-11-26T04:47:54.746Z,45.03
2018-11-26T04:52:56.921Z,47.90
2018-11-26T04:55:22.091Z,45.27
2018-11-26T04:57:47.128Z,40.27
2018-11-26T05:00:13.619Z,37.93
2018-11-26T05:02:38.727Z,44.70
2018-11-26T05:05:03.822Z,41.20
2018-11-26T05:07:28.924Z,44.67
2018-11-26T05:09:53.965Z,43.03
2018-11-26T05:12:19.053Z,43.67
2018-11-26T05:14:44.091Z,38.60
2018-11-26T05:17:09.155Z,38.83
2018-11-26T05:19:34.288Z,43.10
2018-11-26T05:21:59.390Z,39.77
2018-11-26T05:24:24.505Z,41.53
2018-11-26T05:26:49.656Z,45.30
2018-11-26T05:29:14.689Z,39.87
2018-11-26T05:31:39.773Z,38.90
2018-11-26T05:34:04.859Z,45.67
2018-11-26T05:36:30.113Z,42.80
2018-11-26T05:38:55.209Z,42.60
2018-11-26T05:41:20.321Z,38.30
2018-11-26T05:43:45.369Z,40.67
2018-11-26T05:46:10.467Z,42.63
2018-11-26T05:48:35.530Z,41.43
2018-11-26T05:51:00.580Z,42.67
2018-11-26T05:53:25.680Z,44.27
2018-11-26T05:55:50.763Z,43.57
2018-11-26T05:58:15.837Z,42.50
2018-11-26T06:03:19.918Z,43.30
2018-11-26T06:05:45.028Z,46.00
2018-11-26T06:08:10.136Z,44.60
2018-11-26T06:10:35.258Z,47.97
2018-11-26T06:13:00.348Z,47.27
2018-11-26T06:15:25.405Z,47.33
2018-11-26T06:17:57.753Z,47.30
2018-11-26T06:20:22.828Z,42.43
2018-11-26T06:22:48.447Z,43.30
2018-11-26T06:25:36.367Z,46.63
2018-11-26T06:28:01.441Z,47.30
2018-11-26T06:30:26.612Z,48.93
2018-11-26T06:32:51.714Z,45.23
2018-11-26T06:35:36.441Z,49.60
2018-11-26T06:38:01.535Z,50.93
2018-11-26T06:40:26.656Z,43.17
2018-11-26T06:42:51.774Z,49.93
2018-11-26T06:45:21.224Z,47.17
2018-11-26T06:47:46.310Z,48.90
2018-11-26T06:50:15.323Z,47.50
2018-11-26T06:52:40.410Z,46.50
2018-11-26T06:55:06.022Z,47.90
2018-11-26T06:57:31.112Z,49.47
2018-11-26T06:59:56.416Z,45.87
2018-11-26T07:02:21.512Z,53.67
2018-11-26T07:04:46.550Z,47.67
2018-11-26T07:07:11.678Z,49.47
2018-11-26T07:09:36.718Z,49.23
2018-11-26T07:12:01.838Z,52.40
2018-11-26T07:14:26.842Z,52.40
2018-11-26T07:16:51.872Z,49.90
2018-11-26T07:19:16.930Z,52.97
2018-11-26T07:21:41.984Z,50.53
2018-11-26T07:24:07.173Z,46.37
2018-11-26T07:26:32.239Z,49.87
2018-11-26T07:28:57.301Z,55.47
2018-11-26T07:31:22.363Z,50.53
2018-11-26T07:33:47.388Z,47.23
2018-11-26T07:36:12.477Z,44.47
2018-11-26T07:38:37.536Z,52.30
2018-11-26T07:41:02.593Z,50.03
2018-11-26T07:43:27.637Z,46.70
2018-11-26T07:45:52.706Z,44.63
2018-11-26T07:48:17.727Z,43.10
2018-11-26T07:50:42.807Z,46.23
2018-11-26T07:53:27.732Z,47.93
2018-11-26T07:55:52.790Z,45.23
2018-11-26T07:58:17.887Z,46.37
2018-11-26T08:00:43.110Z,49.20
2018-11-26T08:03:19.838Z,48.50
2018-11-26T08:05:44.908Z,53.43
2018-11-26T08:08:09.984Z,48.10
2018-11-26T08:10:35.201Z,49.97
2018-11-26T08:13:00.312Z,48.77
2018-11-26T08:15:26.381Z,45.63
2018-11-26T08:20:27.756Z,46.20
2018-11-26T08:22:52.828Z,46.90
2018-11-26T08:25:19.425Z,46.73
2018-11-26T08:27:45.179Z,48.00
2018-11-26T08:30:30.612Z,53.60
2018-11-26T08:33:04.635Z,48.83
2018-11-26T08:35:30.066Z,49.23
2018-11-26T08:38:13.855Z,50.47
2018-11-26T08:40:57.617Z,47.53
2018-11-26T08:43:41.506Z,51.70
2018-11-26T08:49:01.698Z,47.57
2018-11-26T08:51:26.762Z,47.87
2018-11-26T08:53:51.816Z,45.03
2018-11-26T08:56:16.896Z,47.27
2018-11-26T08:58:41.994Z,48.87
2018-11-26T09:01:17.282Z,46.73
2018-11-26T09:06:18.644Z,44.57
2018-11-26T09:08:43.727Z,45.50
2018-11-26T09:11:10.082Z,50.17
2018-11-26T09:13:35.167Z,42.37
2018-11-26T09:16:00.188Z,48.07
2018-11-26T09:18:25.248Z,43.07
2018-11-26T09:20:50.311Z,46.77
2018-11-26T09:23:15.367Z,45.17
2018-11-26T09:25:40.402Z,42.27
2018-11-26T09:28:05.537Z,44.37
2018-11-26T09:30:30.614Z,44.43
2018-11-26T09:32:55.632Z,47.57
2018-11-26T09:35:20.700Z,42.00
2018-11-26T09:37:45.769Z,45.33
2018-11-26T09:40:12.753Z,44.27
2018-11-26T09:42:37.785Z,38.87
2018-11-26T09:45:02.871Z,41.17
2018-11-26T09:47:27.914Z,41.00
2018-11-26T09:49:52.977Z,46.03
2018-11-26T09:52:18.081Z,42.00
2018-11-26T09:54:43.163Z,44.40
2018-11-26T09:57:08.227Z,41.63
2018-11-26T09:59:33.469Z,44.40
2018-11-26T10:01:58.528Z,38.83
2018-11-26T10:04:23.597Z,43.43
2018-11-26T10:09:27.778Z,44.70
2018-11-26T10:11:52.908Z,39.60
2018-11-26T10:14:17.996Z,39.73
2018-11-26T10:16:43.133Z,47.70
2018-11-26T10:19:08.192Z,36.53
2018-11-26T10:21:33.426Z,37.70
2018-11-26T10:26:34.993Z,34.40
2018-11-26T10:29:00.047Z,32.37
2018-11-26T10:31:25.130Z,31.37
2018-11-26T10:33:50.232Z,34.27
2018-11-26T10:36:15.312Z,31.57
2018-11-26T10:38:40.390Z,33.83
2018-11-26T10:41:05.474Z,31.70
2018-11-26T10:43:30.785Z,30.37
2018-11-26T10:45:55.828Z,34.40
2018-11-26T10:48:20.923Z,29.47
2018-11-26T10:50:46.060Z,26.60
2018-11-26T10:53:11.122Z,30.00
2018-11-26T10:55:37.097Z,26.37
2018-11-26T10:58:02.257Z,26.90
2018-11-26T11:00:46.109Z,26.40
2018-11-26T11:03:11.394Z,24.53
2018-11-26T11:05:37.261Z,24.97
2018-11-26T11:08:02.378Z,24.70
2018-11-26T11:10:28.639Z,24.83
2018-11-26T11:12:53.853Z,23.93
2018-11-26T11:15:18.914Z,24.33
2018-11-26T11:17:43.968Z,24.13
2018-11-26T11:20:29.113Z,22.00
2018-11-26T11:22:54.196Z,22.13
2018-11-26T11:25:40.255Z,21.90
2018-11-26T11:28:05.743Z,21.93
2018-11-26T11:30:31.231Z,21.23
2018-11-26T11:32:56.309Z,22.63
2018-11-26T11:35:21.550Z,20.47
2018-11-26T11:37:47.622Z,22.00
2018-11-26T11:40:32.193Z,20.70
2018-11-26T11:42:57.784Z,19.20
2018-11-26T11:45:23.460Z,18.63
2018-11-26T11:47:48.536Z,20.30
2018-11-26T11:50:14.878Z,21.03
2018-11-26T11:52:39.998Z,18.40
2018-11-26T11:55:05.252Z,17.63
2018-11-26T11:57:30.369Z,18.80
2018-11-26T11:59:55.414Z,19.40
2018-11-26T12:02:20.633Z,21.10
2018-11-26T12:04:45.712Z,18.70
2018-11-26T12:07:10.879Z,19.27
2018-11-26T12:09:35.997Z,17.83
2018-11-26T12:14:38.007Z,17.17
2018-11-26T12:17:03.096Z,21.50
2018-11-26T12:19:28.203Z,17.63
2018-11-26T12:21:53.284Z,19.37
2018-11-26T12:24:18.360Z,17.83
2018-11-26T12:26:43.550Z,16.90
2018-11-26T12:29:08.618Z,18.20
2018-11-26T12:31:33.694Z,14.23
2018-11-26T12:33:58.794Z,16.80
2018-11-26T12:36:23.901Z,17.07
2018-11-26T12:38:48.954Z,16.80
2018-11-26T12:41:14.046Z,14.13
2018-11-26T12:43:39.151Z,17.57
2018-11-26T12:46:04.338Z,17.77
2018-11-26T12:48:29.468Z,15.83
2018-11-26T12:50:54.511Z,17.33
2018-11-26T12:53:19.615Z,16.63
2018-11-26T12:55:44.708Z,16.37
2018-11-26T12:58:09.809Z,17.93
2018-11-26T13:00:34.971Z,18.67
2018-11-26T13:03:01.378Z,16.00
2018-11-26T13:05:26.503Z,15.83
2018-11-26T13:07:51.646Z,15.63
2018-11-26T13:10:21.245Z,14.77
2018-11-26T13:12:45.251Z,14.60
2018-11-26T13:15:29.905Z,16.17
2018-11-26T13:17:55.010Z,17.10
2018-11-26T13:20:39.133Z,17.23
2018-11-26T13:23:04.216Z,18.40
2018-11-26T13:25:42.179Z,15.60
2018-11-26T13:28:06.598Z,15.03
2018-11-26T13:30:35.883Z,13.93
2018-11-26T13:33:20.273Z,14.47
2018-11-26T13:35:46.336Z,19.33
2018-11-26T13:38:11.511Z,17.67
2018-11-26T13:40:36.707Z,14.83
2018-11-26T13:43:01.827Z,17.47
2018-11-26T13:45:46.482Z,15.63
2018-11-26T13:48:12.632Z,14.90
2018-11-26T13:50:39.440Z,16.13
2018-11-26T13:53:04.547Z,14.27
2018-11-26T13:55:29.618Z,14.47
2018-11-26T13:57:54.839Z,14.77
2018-11-26T14:00:19.878Z,16.10
2018-11-26T14:02:44.985Z,17.00
2018-11-26T14:05:29.149Z,14.13
2018-11-26T14:07:54.239Z,15.23
2018-11-26T14:10:38.373Z,14.77
2018-11-26T14:13:05.024Z,16.20
2018-11-26T14:15:30.203Z,14.30
2018-11-26T14:17:55.313Z,16.53
2018-11-26T14:20:20.396Z,15.23
2018-11-26T14:22:45.479Z,16.13
2018-11-26T14:25:19.881Z,16.97
2018-11-26T14:27:45.481Z,15.10
2018-11-26T14:30:30.172Z,15.17
2018-11-26T14:32:55.660Z,14.50
2018-11-26T14:35:20.947Z,14.40
2018-11-26T14:37:46.592Z,15.37
2018-11-26T14:40:49.708Z,13.63
2018-11-26T14:43:14.804Z,13.93
2018-11-26T14:45:39.902Z,15.73
2018-11-26T14:48:05.626Z,13.13
2018-11-26T14:50:30.759Z,12.13
2018-11-26T14:52:55.875Z,13.20
2018-11-26T14:55:24.885Z,13.03
2018-11-26T14:57:49.978Z,13.47
2018-11-26T15:00:34.609Z,12.73
2018-11-26T15:02:59.737Z,14.57
2018-11-26T15:05:24.766Z,14.10
2018-11-26T15:07:49.845Z,14.17
2018-11-26T15:10:33.986Z,14.17
2018-11-26T15:12:59.060Z,14.33
2018-11-26T15:15:27.897Z,15.70
2018-11-26T15:17:52.989Z,15.83
2018-11-26T15:20:37.113Z,15.50
2018-11-26T15:23:02.373Z,17.83
2018-11-26T15:25:28.611Z,15.17
2018-11-26T15:27:54.828Z,15.23
2018-11-26T15:30:21.046Z,13.67
2018-11-26T15:33:05.151Z,15.53
2018-11-26T15:35:30.238Z,15.60
2018-11-26T15:37:55.310Z,17.33
2018-11-26T15:40:21.450Z,17.77
2018-11-26T15:42:46.536Z,16.87
2018-11-26T15:45:30.683Z,15.77
2018-11-26T15:48:15.105Z,19.53
2018-11-26T15:50:40.227Z,18.00
2018-11-26T15:53:05.301Z,16.57
2018-11-26T15:55:30.359Z,16.00
2018-11-26T15:57:55.475Z,19.43
2018-11-26T16:00:21.639Z,15.80
2018-11-26T16:02:46.839Z,17.70
2018-11-26T16:05:13.222Z,21.83
2018-11-26T16:07:38.326Z,19.70
2018-11-26T16:10:16.391Z,18.13
2018-11-26T16:12:41.824Z,19.07
2018-11-26T16:15:09.552Z,18.30
2018-11-26T16:17:34.639Z,20.80
2018-11-26T16:19:59.734Z,19.30
2018-11-26T16:22:24.823Z,21.30
2018-11-26T16:24:49.875Z,21.70
2018-11-26T16:27:14.985Z,21.47
2018-11-26T16:29:40.039Z,24.83
2018-11-26T16:32:05.151Z,22.80
2018-11-26T16:34:41.979Z,22.17
2018-11-26T16:37:07.507Z,22.17
2018-11-26T16:39:32.586Z,24.17
2018-11-26T16:41:57.711Z,22.43
2018-11-26T16:44:22.900Z,23.57
2018-11-26T16:46:47.992Z,21.93
2018-11-26T16:49:13.087Z,23.03
2018-11-26T16:51:38.206Z,21.93
2018-11-26T16:54:03.295Z,23.20
2018-11-26T16:56:28.345Z,22.60
2018-11-26T16:58:53.448Z,24.03
2018-11-26T17:01:18.567Z,22.33
2018-11-26T17:03:43.658Z,23.07
2018-11-26T17:08:46.267Z,24.77
2018-11-26T17:11:11.710Z,23.03
2018-11-26T17:13:36.822Z,24.50
2018-11-26T17:16:01.883Z,24.10
2018-11-26T17:18:27.010Z,24.57
2018-11-26T17:20:52.092Z,24.13
2018-11-26T17:23:17.225Z,23.93
2018-11-26T17:25:42.326Z,23.27
2018-11-26T17:30:45.307Z,24.90
2018-11-26T17:33:11.955Z,25.13
2018-11-26T17:35:37.042Z,23.73
2018-11-26T17:38:02.145Z,24.53
2018-11-26T17:40:27.632Z,24.40
2018-11-26T17:42:53.038Z,26.20
2018-11-26T17:45:18.733Z,24.73
2018-11-26T17:48:03.471Z,23.47
2018-11-26T17:50:39.073Z,26.40
2018-11-26T17:53:04.185Z,25.17
2018-11-26T17:55:29.291Z,28.63
2018-11-26T17:57:54.429Z,24.00
2018-11-26T18:00:48.169Z,19.97
2018-11-26T18:03:13.301Z,19.90
2018-11-26T18:05:38.438Z,20.00
2018-11-26T18:08:05.479Z,21.27
2018-11-26T18:10:30.598Z,20.40
2018-11-26T18:12:55.717Z,18.30
2018-11-26T18:15:20.896Z,21.67
2018-11-26T18:17:46.810Z,16.27
2018-11-26T18:20:22.069Z,17.83
2018-11-26T18:22:48.367Z,18.07
2018-11-26T18:25:13.573Z,18.73
2018-11-26T18:27:39.105Z,19.17
2018-11-26T18:30:05.120Z,16.33
2018-11-26T18:32:30.262Z,17.43
2018-11-26T18:34:55.354Z,17.50
2018-11-26T18:37:20.518Z,20.10
2018-11-26T18:39:45.620Z,16.70
2018-11-26T18:42:10.748Z,17.97
2018-11-26T18:44:54.815Z,17.53
2018-11-26T18:47:19.942Z,17.00
2018-11-26T18:49:45.071Z,19.30
2018-11-26T18:52:10.186Z,18.90
2018-11-26T18:54:54.275Z,17.70
2018-11-26T18:57:19.438Z,15.60
2018-11-26T18:59:44.574Z,16.40
2018-11-26T19:02:09.697Z,17.33
2018-11-26T19:04:34.848Z,17.23
2018-11-26T19:06:59.993Z,18.70
2018-11-26T19:09:25.086Z,16.50
2018-11-26T19:11:50.204Z,21.03
2018-11-26T19:14:17.665Z,18.57
2018-11-26T19:16:45.013Z,16.60
2018-11-26T19:19:10.144Z,19.70
2018-11-26T19:21:35.285Z,19.37
2018-11-26T19:24:00.405Z,16.97
2018-11-26T19:26:25.855Z,17.03
2018-11-26T19:28:50.637Z,18.03
2018-11-26T19:31:15.755Z,19.90
2018-11-26T19:33:40.878Z,19.43
2018-11-26T19:36:06.405Z,17.70
2018-11-26T19:38:31.493Z,16.63
2018-11-26T19:40:56.618Z,17.43
2018-11-26T19:43:21.806Z,18.33
2018-11-26T19:45:46.942Z,17.97
2018-11-26T19:48:12.103Z,18.20
2018-11-26T19:50:37.332Z,20.13
2018-11-26T19:53:02.449Z,16.63
2018-11-26T19:55:28.035Z,17.77
2018-11-26T19:57:53.656Z,17.57
2018-11-26T20:00:37.905Z,19.70
2018-11-26T20:03:23.879Z,20.53
2018-11-26T20:06:26.974Z,20.43
2018-11-26T20:09:11.126Z,19.10
2018-11-26T20:14:21.331Z,19.47
2018-11-26T20:16:59.791Z,21.60
2018-11-26T20:19:24.890Z,22.40
2018-11-26T20:21:50.050Z,19.00
2018-11-26T20:24:15.157Z,19.70
2018-11-26T20:26:40.283Z,19.57
2018-11-26T20:29:05.455Z,20.23
2018-11-26T20:31:30.555Z,19.63
2018-11-26T20:33:56.251Z,19.77
2018-11-26T20:36:21.460Z,20.40
2018-11-26T20:38:46.547Z,19.13
2018-11-26T20:41:12.627Z,19.63
2018-11-26T20:43:56.709Z,21.23
2018-11-26T20:46:21.859Z,18.93
2018-11-26T20:48:46.983Z,18.87
2018-11-26T20:51:12.110Z,22.33
2018-11-26T20:53:37.229Z,21.80
2018-11-26T20:56:03.286Z,18.83
2018-11-26T20:58:28.379Z,21.57
2018-11-26T21:00:53.514Z,21.10
2018-11-26T21:03:19.387Z,20.63
2018-11-26T21:05:44.561Z,22.40
2018-11-26T21:08:09.691Z,24.73
2018-11-26T21:10:34.857Z,21.90
2018-11-26T21:12:59.952Z,24.67
2018-11-26T21:15:25.074Z,24.73
2018-11-26T21:17:51.366Z,21.93
2018-11-26T21:20:36.275Z,23.20
2018-11-26T21:23:01.387Z,21.40
2018-11-26T21:25:26.509Z,22.30
2018-11-26T21:27:51.601Z,20.30
2018-11-26T21:30:35.769Z,20.30
2018-11-26T21:33:00.968Z,23.00
2018-11-26T21:35:26.116Z,21.47
2018-11-26T21:37:52.287Z,25.27
2018-11-26T21:40:20.409Z,22.37
2018-11-26T21:42:43.879Z,24.10
2018-11-26T21:45:19.318Z,21.50
2018-11-26T21:47:44.392Z,24.77
2018-11-26T21:50:11.334Z,25.33
2018-11-26T21:52:36.448Z,22.53
2018-11-26T21:55:01.520Z,23.90
2018-11-26T21:57:26.583Z,22.27
2018-11-26T21:59:51.701Z,24.40
2018-11-26T22:02:16.918Z,23.53
2018-11-26T22:04:42.027Z,25.63
2018-11-26T22:07:07.436Z,23.60
2018-11-26T22:09:32.493Z,21.00
2018-11-26T22:12:10.368Z,23.07
2018-11-26T22:14:35.441Z,23.70
2018-11-26T22:17:00.524Z,23.77
2018-11-26T22:19:25.570Z,22.13
2018-11-26T22:21:50.650Z,24.27
2018-11-26T22:24:15.732Z,23.33
2018-11-26T22:26:40.798Z,24.47
2018-11-26T22:29:06.112Z,26.13
2018-11-26T22:31:31.180Z,23.60
2018-11-26T22:33:56.268Z,21.73
2018-11-26T22:36:21.375Z,24.83
2018-11-26T22:38:46.490Z,23.67
2018-11-26T22:41:11.597Z,22.37
2018-11-26T22:43:36.690Z,23.23
2018-11-26T22:46:02.204Z,23.90
2018-11-26T22:48:27.288Z,22.20
2018-11-26T22:50:52.355Z,22.13
2018-11-26T22:53:17.458Z,24.17
2018-11-26T22:55:42.613Z,27.87
2018-11-26T22:58:09.291Z,25.40
2018-11-26T23:00:54.407Z,25.43
2018-11-26T23:03:20.686Z,24.63
2018-11-26T23:05:45.816Z,32.13
2018-11-26T23:08:11.049Z,32.07
2018-11-26T23:10:36.167Z,41.63
2018-11-26T23:13:01.278Z,37.73
2018-11-26T23:15:26.359Z,33.43
2018-11-26T23:17:51.473Z,32.50
2018-11-26T23:20:35.594Z,27.90
2018-11-26T23:23:00.646Z,29.30
2018-11-26T23:25:25.731Z,29.07
2018-11-26T23:27:50.828Z,29.73
2018-11-26T23:30:34.956Z,32.50
2018-11-26T23:33:03.902Z,28.30
2018-11-26T23:35:29.060Z,27.47
2018-11-26T23:37:54.104Z,30.13
2018-11-26T23:40:19.233Z,30.20
2018-11-26T23:42:44.310Z,26.10
2018-11-26T23:45:13.645Z,28.63
2018-11-26T23:47:38.727Z,28.60
2018-11-26T23:50:03.829Z,25.73
2018-11-26T23:52:28.963Z,23.47
2018-11-26T23:54:54.046Z,24.23
2018-11-26T23:57:19.141Z,25.27
2018-11-26T23:59:44.220Z,26.87
